createdAt,value
2018-05-27T00:00:22.776Z,83.56
2018-05-27T00:01:22.780Z,83.37
2018-05-27T00:02:22.783Z,83.47
2018-05-27T00:03:22.785Z,83.12
2018-05-27T00:04:22.789Z,82.98
2018-05-27T00:05:22.790Z,81.59
2018-05-27T00:06:22.793Z,81.68
2018-05-27T00:07:22.797Z,81.49
2018-05-27T00:08:22.801Z,81.49
2018-05-27T00:09:22.803Z,80.43
2018-05-27T00:10:22.806Z,80.53
2018-05-27T00:11:22.810Z,80.43
2018-05-27T00:12:22.813Z,80.43
2018-05-27T00:13:22.818Z,80.24
2018-05-27T00:14:22.823Z,80.24
2018-05-27T00:15:22.825Z,80.15
2018-05-27T00:16:22.825Z,80.24
2018-05-27T00:17:22.828Z,80.43
2018-05-27T00:18:22.829Z,80.63
2018-05-27T00:19:22.837Z,80.53
2018-05-27T00:20:22.835Z,80.05
2018-05-27T00:21:22.841Z,80.05
2018-05-27T00:22:22.842Z,80.43
2018-05-27T00:23:22.848Z,80.73
2018-05-27T00:24:22.850Z,81.30
2018-05-27T00:25:22.851Z,82.45
2018-05-27T00:26:22.854Z,82.26
2018-05-27T00:27:22.856Z,81.59
2018-05-27T00:28:22.861Z,82.60
2018-05-27T00:29:22.864Z,82.12
2018-05-27T00:30:22.867Z,81.84
2018-05-27T00:31:22.869Z,82.51
2018-05-27T00:32:22.873Z,82.79
2018-05-27T00:33:22.876Z,82.60
2018-05-27T00:34:22.878Z,83.18
2018-05-27T00:36:22.883Z,82.89
2018-05-27T00:37:22.888Z,83.94
2018-05-27T00:38:22.889Z,83.47
2018-05-27T00:39:22.932Z,83.37
2018-05-27T00:40:22.895Z,84.42
2018-05-27T00:41:22.898Z,84.33
2018-05-27T00:42:22.900Z,84.23
2018-05-27T00:43:22.904Z,84.23
2018-05-27T00:44:22.907Z,84.38
2018-05-27T00:45:22.909Z,84.23
2018-05-27T00:46:22.913Z,84.09
2018-05-27T00:47:22.914Z,84.00
2018-05-27T00:48:22.917Z,84.38
2018-05-27T00:49:22.920Z,84.19
2018-05-27T00:50:22.923Z,85.15
2018-05-27T00:51:22.925Z,84.38
2018-05-27T00:52:22.928Z,84.77
2018-05-27T00:53:22.931Z,85.15
2018-05-27T00:54:22.934Z,85.05
2018-05-27T00:55:22.937Z,84.95
2018-05-27T00:56:22.940Z,84.86
2018-05-27T00:57:22.943Z,85.25
2018-05-27T00:58:22.945Z,85.05
2018-05-27T00:59:22.946Z,86.11
2018-05-27T01:00:22.951Z,85.05
2018-05-27T01:01:22.953Z,84.48
2018-05-27T01:02:22.956Z,84.95
2018-05-27T01:03:22.957Z,85.44
2018-05-27T01:04:22.961Z,85.15
2018-05-27T01:05:22.964Z,85.72
2018-05-27T01:06:23.007Z,85.15
2018-05-27T01:07:22.968Z,85.05
2018-05-27T01:08:22.971Z,85.63
2018-05-27T01:09:22.973Z,86.25
2018-05-27T01:10:22.975Z,85.82
2018-05-27T01:11:22.978Z,85.88
2018-05-27T01:12:22.982Z,85.49
2018-05-27T01:13:22.983Z,85.68
2018-05-27T01:14:22.986Z,86.25
2018-05-27T01:15:22.988Z,85.88
2018-05-27T01:16:22.990Z,85.78
2018-05-27T01:17:22.994Z,85.88
2018-05-27T01:18:22.995Z,85.68
2018-05-27T01:19:22.997Z,85.49
2018-05-27T01:20:23.002Z,85.78
2018-05-27T01:21:23.004Z,86.07
2018-05-27T01:22:23.004Z,85.88
2018-05-27T01:23:23.009Z,85.68
2018-05-27T01:24:23.009Z,85.68
2018-05-27T01:25:23.012Z,85.68
2018-05-27T01:26:23.014Z,85.68
2018-05-27T01:27:23.017Z,85.68
2018-05-27T01:28:23.020Z,85.88
2018-05-27T01:29:23.022Z,86.07
2018-05-27T01:30:23.023Z,86.07
2018-05-27T01:31:23.027Z,86.35
2018-05-27T01:32:23.029Z,86.07
2018-05-27T01:33:23.032Z,86.25
2018-05-27T01:34:23.033Z,85.88
2018-05-27T01:35:23.037Z,85.88
2018-05-27T01:36:23.038Z,86.74
2018-05-27T01:37:23.041Z,86.64
2018-05-27T01:38:23.042Z,86.45
2018-05-27T01:39:23.050Z,86.64
2018-05-27T01:40:23.048Z,86.54
2018-05-27T01:41:23.051Z,86.54
2018-05-27T01:42:23.053Z,86.93
2018-05-27T01:43:23.056Z,86.74
2018-05-27T01:44:23.057Z,86.74
2018-05-27T01:45:23.061Z,86.54
2018-05-27T01:46:23.061Z,86.45
2018-05-27T01:47:23.066Z,87.12
2018-05-27T01:48:23.067Z,85.78
2018-05-27T01:49:23.069Z,86.07
2018-05-27T01:50:23.071Z,86.54
2018-05-27T01:51:23.076Z,86.54
2018-05-27T01:52:23.076Z,86.93
2018-05-27T01:53:23.079Z,87.21
2018-05-27T01:54:23.081Z,87.12
2018-05-27T01:55:23.083Z,87.02
2018-05-27T01:56:23.089Z,86.35
2018-05-27T01:57:23.092Z,87.02
2018-05-27T01:58:23.089Z,87.12
2018-05-27T01:59:23.092Z,86.64
2018-05-27T02:00:23.094Z,87.65
2018-05-27T02:01:23.098Z,87.12
2018-05-27T02:02:23.099Z,87.60
2018-05-27T02:03:23.100Z,87.98
2018-05-27T02:04:23.103Z,87.55
2018-05-27T02:05:23.107Z,87.46
2018-05-27T02:06:23.107Z,87.84
2018-05-27T02:07:23.111Z,88.32
2018-05-27T02:08:23.112Z,88.13
2018-05-27T02:09:23.116Z,87.74
2018-05-27T02:10:23.120Z,87.94
2018-05-27T02:11:23.120Z,87.74
2018-05-27T02:12:23.121Z,88.23
2018-05-27T02:13:23.125Z,87.94
2018-05-27T02:14:23.125Z,87.27
2018-05-27T02:15:23.128Z,87.98
2018-05-27T02:16:23.134Z,87.46
2018-05-27T02:17:23.132Z,87.94
2018-05-27T02:18:23.133Z,87.65
2018-05-27T02:19:23.137Z,86.98
2018-05-27T02:20:23.141Z,87.55
2018-05-27T02:21:23.140Z,87.55
2018-05-27T02:22:23.142Z,87.31
2018-05-27T02:23:23.145Z,87.17
2018-05-27T02:24:23.148Z,86.88
2018-05-27T02:25:23.149Z,87.08
2018-05-27T02:26:23.152Z,87.27
2018-05-27T02:27:23.153Z,87.55
2018-05-27T02:28:23.156Z,87.55
2018-05-27T02:29:23.162Z,87.74
2018-05-27T02:30:23.160Z,87.84
2018-05-27T02:31:23.164Z,87.74
2018-05-27T02:32:23.172Z,87.84
2018-05-27T02:33:23.169Z,88.03
2018-05-27T02:34:23.168Z,87.94
2018-05-27T02:35:23.169Z,87.94
2018-05-27T02:36:23.172Z,87.55
2018-05-27T02:37:23.173Z,87.55
2018-05-27T02:38:23.175Z,87.94
2018-05-27T02:39:23.177Z,87.84
2018-05-27T02:40:23.181Z,87.65
2018-05-27T02:41:23.183Z,87.74
2018-05-27T02:42:23.183Z,88.23
2018-05-27T02:43:23.185Z,88.61
2018-05-27T02:44:23.188Z,88.42
2018-05-27T02:45:23.191Z,88.61
2018-05-27T02:46:23.191Z,88.61
2018-05-27T02:47:23.193Z,88.80
2018-05-27T02:48:23.195Z,88.61
2018-05-27T02:49:23.198Z,89.37
2018-05-27T02:50:23.203Z,88.90
2018-05-27T02:51:23.202Z,88.90
2018-05-27T02:52:23.203Z,89.09
2018-05-27T02:53:23.207Z,89.76
2018-05-27T02:54:23.206Z,88.99
2018-05-27T02:55:23.207Z,88.70
2018-05-27T02:56:23.210Z,88.80
2018-05-27T02:57:23.212Z,88.76
2018-05-27T02:58:23.216Z,88.95
2018-05-27T02:59:23.217Z,88.95
2018-05-27T03:00:23.218Z,88.95
2018-05-27T03:01:23.223Z,89.23
2018-05-27T03:02:23.221Z,88.85
2018-05-27T03:03:23.223Z,88.61
2018-05-27T03:04:23.224Z,88.66
2018-05-27T03:05:23.231Z,88.70
2018-05-27T03:06:23.231Z,88.70
2018-05-27T03:07:23.229Z,88.32
2018-05-27T03:08:23.232Z,88.51
2018-05-27T03:09:23.234Z,89.28
2018-05-27T03:10:23.236Z,88.51
2018-05-27T03:11:23.238Z,88.70
2018-05-27T03:12:23.244Z,88.99
2018-05-27T03:13:23.255Z,88.23
2018-05-27T03:14:23.244Z,88.99
2018-05-27T03:15:23.244Z,88.76
2018-05-27T03:16:23.246Z,88.70
2018-05-27T03:17:23.250Z,89.18
2018-05-27T03:18:23.250Z,89.18
2018-05-27T03:19:23.252Z,89.28
2018-05-27T03:20:23.252Z,88.90
2018-05-27T03:21:23.262Z,88.70
2018-05-27T03:22:23.255Z,88.90
2018-05-27T03:23:23.257Z,88.99
2018-05-27T03:24:23.260Z,88.47
2018-05-27T03:25:23.262Z,88.61
2018-05-27T03:26:23.263Z,89.09
2018-05-27T03:27:23.266Z,88.61
2018-05-27T03:28:23.266Z,88.61
2018-05-27T03:29:23.268Z,88.61
2018-05-27T03:30:23.269Z,88.13
2018-05-27T03:31:23.273Z,88.80
2018-05-27T03:32:23.273Z,88.70
2018-05-27T03:33:23.276Z,89.09
2018-05-27T03:34:23.277Z,88.70
2018-05-27T03:35:23.281Z,88.61
2018-05-27T03:36:23.302Z,88.51
2018-05-27T03:37:23.282Z,88.99
2018-05-27T03:38:23.283Z,88.80
2018-05-27T03:39:23.286Z,88.51
2018-05-27T03:40:23.288Z,88.99
2018-05-27T03:41:23.291Z,89.04
2018-05-27T03:42:23.291Z,88.99
2018-05-27T03:43:23.291Z,88.42
2018-05-27T03:44:23.294Z,88.85
2018-05-27T03:45:23.296Z,88.51
2018-05-27T03:46:23.298Z,89.09
2018-05-27T03:47:23.299Z,89.43
2018-05-27T03:48:23.301Z,89.14
2018-05-27T03:49:23.302Z,89.33
2018-05-27T03:50:23.306Z,88.85
2018-05-27T03:51:23.305Z,88.85
2018-05-27T03:52:23.311Z,89.43
2018-05-27T03:53:23.309Z,89.23
2018-05-27T03:54:23.309Z,89.33
2018-05-27T03:55:23.312Z,89.43
2018-05-27T03:56:23.315Z,89.90
2018-05-27T03:57:23.315Z,89.52
2018-05-27T03:58:23.316Z,89.52
2018-05-27T03:59:23.318Z,89.62
2018-05-27T04:00:23.322Z,89.62
2018-05-27T04:01:23.323Z,89.81
2018-05-27T04:02:23.324Z,89.81
2018-05-27T04:03:23.325Z,89.52
2018-05-27T04:04:23.327Z,89.52
2018-05-27T04:05:23.333Z,89.52
2018-05-27T04:06:23.330Z,89.72
2018-05-27T04:07:23.333Z,89.62
2018-05-27T04:08:23.334Z,89.33
2018-05-27T04:09:23.337Z,89.90
2018-05-27T04:10:23.336Z,90.29
2018-05-27T04:11:23.338Z,90.48
2018-05-27T04:12:23.340Z,89.81
2018-05-27T04:13:23.347Z,90.67
2018-05-27T04:14:23.343Z,90.77
2018-05-27T04:15:23.344Z,90.09
2018-05-27T04:16:23.346Z,90.39
2018-05-27T04:17:23.352Z,89.90
2018-05-27T04:18:23.350Z,90.29
2018-05-27T04:19:23.352Z,90.00
2018-05-27T04:20:23.354Z,90.09
2018-05-27T04:21:23.354Z,90.29
2018-05-27T04:22:23.355Z,89.43
2018-05-27T04:23:23.359Z,89.62
2018-05-27T04:24:23.360Z,90.00
2018-05-27T04:25:23.361Z,89.90
2018-05-27T04:26:23.362Z,90.09
2018-05-27T04:27:23.363Z,90.00
2018-05-27T04:28:23.439Z,90.39
2018-05-27T04:29:23.368Z,89.81
2018-05-27T04:30:23.369Z,90.00
2018-05-27T04:31:23.370Z,90.00
2018-05-27T04:32:23.373Z,89.90
2018-05-27T04:33:23.374Z,90.19
2018-05-27T04:34:23.374Z,89.95
2018-05-27T04:35:23.376Z,89.86
2018-05-27T04:36:23.380Z,89.86
2018-05-27T04:37:23.381Z,89.66
2018-05-27T04:38:23.381Z,89.86
2018-05-27T04:39:23.382Z,89.09
2018-05-27T04:40:23.386Z,88.90
2018-05-27T04:41:23.387Z,89.18
2018-05-27T04:42:23.387Z,89.28
2018-05-27T04:43:23.391Z,89.28
2018-05-27T04:44:23.394Z,89.18
2018-05-27T04:45:23.393Z,88.90
2018-05-27T04:46:23.396Z,88.51
2018-05-27T04:47:23.398Z,88.61
2018-05-27T04:48:23.399Z,88.61
2018-05-27T04:49:23.402Z,88.32
2018-05-27T04:50:23.402Z,88.32
2018-05-27T04:51:23.404Z,87.74
2018-05-27T04:52:23.407Z,88.32
2018-05-27T04:53:23.409Z,87.74
2018-05-27T04:54:23.416Z,87.17
2018-05-27T04:55:23.415Z,87.02
2018-05-27T04:56:23.413Z,87.08
2018-05-27T04:57:23.416Z,86.88
2018-05-27T04:58:23.420Z,86.74
2018-05-27T04:59:23.427Z,86.93
2018-05-27T05:00:23.421Z,86.50
2018-05-27T05:01:23.424Z,86.45
2018-05-27T05:02:23.427Z,86.54
2018-05-27T05:03:23.428Z,86.74
2018-05-27T05:04:23.430Z,86.83
2018-05-27T05:05:23.436Z,86.07
2018-05-27T05:06:23.434Z,86.64
2018-05-27T05:07:23.441Z,86.07
2018-05-27T05:08:23.437Z,86.25
2018-05-27T05:09:23.454Z,86.30
2018-05-27T05:10:23.440Z,85.97
2018-05-27T05:11:23.443Z,85.30
2018-05-27T05:12:23.446Z,85.72
2018-05-27T05:13:23.449Z,85.82
2018-05-27T05:14:23.451Z,86.11
2018-05-27T05:15:23.452Z,85.34
2018-05-27T05:16:23.455Z,84.77
2018-05-27T05:17:23.459Z,84.77
2018-05-27T05:18:23.460Z,85.44
2018-05-27T05:19:23.463Z,84.77
2018-05-27T05:20:23.465Z,84.19
2018-05-27T05:21:23.467Z,84.14
2018-05-27T05:22:23.468Z,84.14
2018-05-27T05:23:23.470Z,84.23
2018-05-27T05:24:23.530Z,84.23
2018-05-27T05:25:23.476Z,83.85
2018-05-27T05:26:23.481Z,83.47
2018-05-27T05:27:23.482Z,83.08
2018-05-27T05:28:23.486Z,83.37
2018-05-27T05:29:23.486Z,82.60
2018-05-27T05:30:23.488Z,83.27
2018-05-27T05:31:23.490Z,83.56
2018-05-27T05:32:23.495Z,83.27
2018-05-27T05:33:23.496Z,83.08
2018-05-27T05:34:23.499Z,81.84
2018-05-27T05:35:23.504Z,81.74
2018-05-27T05:36:23.527Z,82.31
2018-05-27T05:37:23.507Z,82.03
2018-05-27T05:38:23.509Z,81.54
2018-05-27T05:39:23.513Z,82.03
2018-05-27T05:40:23.517Z,81.10
2018-05-27T05:41:23.518Z,81.84
2018-05-27T05:42:23.521Z,82.89
2018-05-27T05:43:23.524Z,82.79
2018-05-27T05:44:23.525Z,82.79
2018-05-27T05:45:23.530Z,81.84
2018-05-27T05:46:23.532Z,82.79
2018-05-27T05:47:23.535Z,83.65
2018-05-27T05:48:23.540Z,82.93
2018-05-27T05:49:23.617Z,82.79
2018-05-27T05:50:23.543Z,82.35
2018-05-27T05:51:23.548Z,81.78
2018-05-27T05:52:23.551Z,82.21
2018-05-27T05:53:23.552Z,82.26
2018-05-27T05:54:23.554Z,81.78
2018-05-27T05:55:23.560Z,81.40
2018-05-27T05:56:23.560Z,81.20
2018-05-27T05:57:23.563Z,80.73
2018-05-27T05:58:23.567Z,81.68
2018-05-27T05:59:23.569Z,80.63
2018-05-27T06:00:23.573Z,80.76
2018-05-27T06:01:23.576Z,81.82
2018-05-27T06:02:23.582Z,82.68
2018-05-27T06:03:23.581Z,82.68
2018-05-27T06:04:23.587Z,82.40
2018-05-27T06:05:23.588Z,81.24
2018-05-27T06:06:23.590Z,81.24
2018-05-27T06:07:23.595Z,81.72
2018-05-27T06:08:23.597Z,81.15
2018-05-27T06:09:23.601Z,81.53
2018-05-27T06:10:23.603Z,81.63
2018-05-27T06:11:23.607Z,81.15
2018-05-27T06:12:23.611Z,80.42
2018-05-27T06:13:23.615Z,80.90
2018-05-27T06:14:23.617Z,80.90
2018-05-27T06:15:23.620Z,80.71
2018-05-27T06:16:23.624Z,80.51
2018-05-27T06:17:23.628Z,80.61
2018-05-27T06:18:23.629Z,79.94
2018-05-27T06:19:23.635Z,80.55
2018-05-27T06:20:23.638Z,81.76
2018-05-27T06:21:23.648Z,81.71
2018-05-27T06:22:23.644Z,81.38
2018-05-27T06:23:23.648Z,81.48
2018-05-27T06:24:23.651Z,81.32
2018-05-27T06:25:23.655Z,81.61
2018-05-27T06:26:23.658Z,80.65
2018-05-27T06:27:23.663Z,80.75
2018-05-27T06:28:23.666Z,79.30
2018-05-27T06:29:23.671Z,79.30
2018-05-27T06:30:23.674Z,78.15
2018-05-27T06:31:23.679Z,77.96
2018-05-27T06:32:23.689Z,79.11
2018-05-27T06:33:23.685Z,79.79
2018-05-27T06:34:23.690Z,79.82
2018-05-27T06:35:23.694Z,78.77
2018-05-27T06:36:23.697Z,79.53
2018-05-27T06:37:23.703Z,78.86
2018-05-27T06:38:23.706Z,78.48
2018-05-27T06:39:23.710Z,77.23
2018-05-27T06:40:23.715Z,77.04
2018-05-27T06:41:23.718Z,77.33
2018-05-27T06:42:23.721Z,77.90
2018-05-27T06:43:23.726Z,78.86
2018-05-27T06:44:23.730Z,78.86
2018-05-27T06:45:23.737Z,78.52
2018-05-27T06:46:23.743Z,78.23
2018-05-27T06:47:23.745Z,78.71
2018-05-27T06:48:23.747Z,78.23
2018-05-27T06:49:23.753Z,77.23
2018-05-27T06:50:23.756Z,76.46
2018-05-27T06:51:23.763Z,76.17
2018-05-27T06:52:23.765Z,77.71
2018-05-27T06:53:23.769Z,77.71
2018-05-27T06:54:23.774Z,78.67
2018-05-27T06:55:23.780Z,78.86
2018-05-27T06:56:23.788Z,79.82
2018-05-27T06:57:23.787Z,78.86
2018-05-27T06:58:23.792Z,77.56
2018-05-27T06:59:23.797Z,78.13
2018-05-27T07:00:23.801Z,79.48
2018-05-27T07:01:23.807Z,78.23
2018-05-27T07:02:23.812Z,77.65
2018-05-27T07:03:23.814Z,78.23
2018-05-27T07:04:23.846Z,78.71
2018-05-27T07:05:23.823Z,79.19
2018-05-27T07:06:23.825Z,78.90
2018-05-27T07:07:23.831Z,79.58
2018-05-27T07:08:23.836Z,80.25
2018-05-27T07:09:23.841Z,79.77
2018-05-27T07:10:23.843Z,79.10
2018-05-27T07:11:23.848Z,79.58
2018-05-27T07:12:23.853Z,79.77
2018-05-27T07:13:23.858Z,79.43
2018-05-27T07:14:23.862Z,78.81
2018-05-27T07:15:23.867Z,78.13
2018-05-27T07:16:23.872Z,79.58
2018-05-27T07:17:23.877Z,80.00
2018-05-27T07:18:23.881Z,78.42
2018-05-27T07:19:23.886Z,78.13
2018-05-27T07:20:23.935Z,77.26
2018-05-27T07:21:23.894Z,77.75
2018-05-27T07:22:23.899Z,78.52
2018-05-27T07:23:23.902Z,78.03
2018-05-27T07:24:23.908Z,77.56
2018-05-27T07:25:23.913Z,78.03
2018-05-27T07:26:23.916Z,78.71
2018-05-27T07:27:23.922Z,79.10
2018-05-27T07:28:23.926Z,78.33
2018-05-27T07:29:23.930Z,78.61
2018-05-27T07:30:23.937Z,78.81
2018-05-27T07:31:23.939Z,79.10
2018-05-27T07:32:23.944Z,79.38
2018-05-27T07:33:23.949Z,79.67
2018-05-27T07:34:23.952Z,79.77
2018-05-27T07:35:23.965Z,79.48
2018-05-27T07:36:23.963Z,78.27
2018-05-27T07:37:23.967Z,77.78
2018-05-27T07:38:23.973Z,78.08
2018-05-27T07:39:23.978Z,78.08
2018-05-27T07:40:23.981Z,76.53
2018-05-27T07:41:23.992Z,76.53
2018-05-27T07:42:23.991Z,75.09
2018-05-27T07:43:23.997Z,75.80
2018-05-27T07:44:24.001Z,74.45
2018-05-27T07:45:24.007Z,74.55
2018-05-27T07:46:24.036Z,75.90
2018-05-27T07:47:24.017Z,74.93
2018-05-27T07:48:24.022Z,74.55
2018-05-27T07:49:24.027Z,74.90
2018-05-27T07:50:24.033Z,76.28
2018-05-27T07:51:24.038Z,74.84
2018-05-27T07:52:24.043Z,74.93
2018-05-27T07:53:24.048Z,75.61
2018-05-27T07:54:24.053Z,74.88
2018-05-27T07:55:24.061Z,73.53
2018-05-27T07:56:24.066Z,73.53
2018-05-27T07:57:24.072Z,74.10
2018-05-27T07:58:24.101Z,74.97
2018-05-27T07:59:24.082Z,73.72
2018-05-27T08:00:24.089Z,72.89
2018-05-27T08:01:24.093Z,72.41
2018-05-27T08:02:24.099Z,72.15
2018-05-27T08:03:24.106Z,71.67
2018-05-27T08:04:24.115Z,71.58
2018-05-27T08:05:24.119Z,71.48
2018-05-27T08:06:24.124Z,70.80
2018-05-27T08:07:24.132Z,70.64
2018-05-27T08:08:24.140Z,70.00
2018-05-27T08:09:24.147Z,68.36
2018-05-27T08:10:24.152Z,68.68
2018-05-27T08:11:24.160Z,68.49
2018-05-27T08:12:24.168Z,67.91
2018-05-27T08:13:24.178Z,67.04
2018-05-27T08:14:24.185Z,66.75
2018-05-27T08:15:24.193Z,66.36
2018-05-27T08:16:24.202Z,66.11
2018-05-27T08:17:24.214Z,64.66
2018-05-27T08:18:24.218Z,64.79
2018-05-27T08:19:24.226Z,65.08
2018-05-27T08:20:24.238Z,64.11
2018-05-27T08:21:24.245Z,62.27
2018-05-27T08:22:24.252Z,62.76
2018-05-27T08:23:24.266Z,62.66
2018-05-27T08:24:24.274Z,61.66
2018-05-27T08:25:24.280Z,64.63
2018-05-27T08:26:24.288Z,63.95
2018-05-27T08:27:24.298Z,64.95
2018-05-27T08:28:24.308Z,63.43
2018-05-27T08:29:24.318Z,64.79
2018-05-27T08:30:24.324Z,64.43
2018-05-27T08:31:24.336Z,62.11
2018-05-27T08:32:24.346Z,62.08
2018-05-27T08:33:24.355Z,62.76
2018-05-27T08:34:24.364Z,62.47
2018-05-27T08:35:24.373Z,62.66
2018-05-27T08:36:24.386Z,62.18
2018-05-27T08:37:24.393Z,62.47
2018-05-27T08:38:24.403Z,63.43
2018-05-27T08:39:24.412Z,65.37
2018-05-27T08:40:24.426Z,64.98
2018-05-27T08:41:24.434Z,64.40
2018-05-27T08:42:24.442Z,65.37
2018-05-27T08:43:24.470Z,64.89
2018-05-27T08:44:24.463Z,62.98
2018-05-27T08:45:24.471Z,62.59
2018-05-27T08:46:24.482Z,61.43
2018-05-27T08:47:24.491Z,60.78
2018-05-27T08:48:24.507Z,59.43
2018-05-27T08:49:24.516Z,59.82
2018-05-27T08:50:24.523Z,60.52
2018-05-27T08:51:24.544Z,59.59
2018-05-27T08:52:24.544Z,59.81
2018-05-27T08:53:24.605Z,61.46
2018-05-27T08:54:24.567Z,58.87
2018-05-27T08:55:24.577Z,58.87
2018-05-27T08:56:24.590Z,59.00
2018-05-27T08:57:24.648Z,58.31
2018-05-27T08:58:24.615Z,58.15
2018-05-27T08:59:24.624Z,56.92
2018-05-27T09:00:24.637Z,56.24
2018-05-27T09:01:24.678Z,58.37
2018-05-27T09:02:24.659Z,58.08
2018-05-27T09:03:24.671Z,57.04
2018-05-27T09:04:24.685Z,57.04
2018-05-27T09:05:24.698Z,57.53
2018-05-27T09:06:24.946Z,56.43
2018-05-27T09:07:24.723Z,55.53
2018-05-27T09:08:24.735Z,56.09
2018-05-27T09:09:24.748Z,56.25
2018-05-27T09:10:24.758Z,58.36
2018-05-27T09:11:24.778Z,58.26
2018-05-27T09:12:24.785Z,59.00
2018-05-27T09:13:24.798Z,59.20
2018-05-27T09:14:24.809Z,60.04
2018-05-27T09:15:24.908Z,60.82
2018-05-27T09:16:24.834Z,60.91
2018-05-27T09:17:24.847Z,61.01
2018-05-27T09:18:24.860Z,60.75
2018-05-27T09:19:24.869Z,61.52
2018-05-27T09:20:24.879Z,61.07
2018-05-27T09:21:24.891Z,60.20
2018-05-27T09:22:24.905Z,60.78
2018-05-27T09:23:24.914Z,62.07
2018-05-27T09:24:24.925Z,61.00
2018-05-27T09:25:24.937Z,60.16
2018-05-27T09:26:24.951Z,60.16
2018-05-27T09:27:24.960Z,59.48
2018-05-27T09:28:24.972Z,60.97
2018-05-27T09:29:24.985Z,60.28
2018-05-27T09:30:24.998Z,59.83
2018-05-27T09:31:25.006Z,58.50
2018-05-27T09:32:25.019Z,59.67
2018-05-27T09:33:25.031Z,56.46
2018-05-27T09:34:25.043Z,59.05
2018-05-27T09:35:25.055Z,57.60
2018-05-27T09:36:25.067Z,58.64
2018-05-27T09:37:25.078Z,59.41
2018-05-27T09:38:25.091Z,56.40
2018-05-27T09:39:25.104Z,58.12
2018-05-27T09:40:25.114Z,59.77
2018-05-27T09:41:25.125Z,59.36
2018-05-27T09:42:25.136Z,58.77
2018-05-27T09:43:25.148Z,60.91
2018-05-27T09:44:25.158Z,62.75
2018-05-27T09:45:25.265Z,64.88
2018-05-27T09:46:25.180Z,63.13
2018-05-27T09:47:25.195Z,61.98
2018-05-27T09:48:25.202Z,59.23
2018-05-27T09:49:25.215Z,60.10
2018-05-27T09:50:25.223Z,61.82
2018-05-27T09:51:25.287Z,61.24
2018-05-27T09:52:25.245Z,61.40
2018-05-27T09:53:25.253Z,61.11
2018-05-27T09:54:25.263Z,61.49
2018-05-27T09:55:25.272Z,64.40
2018-05-27T09:56:25.283Z,63.92
2018-05-27T09:57:25.292Z,62.46
2018-05-27T09:58:25.301Z,63.24
2018-05-27T09:59:25.324Z,64.01
2018-05-27T10:00:25.321Z,65.95
2018-05-27T10:01:25.329Z,65.37
2018-05-27T10:02:25.338Z,65.08
2018-05-27T10:03:25.349Z,62.85
2018-05-27T10:04:25.355Z,62.85
2018-05-27T10:05:25.366Z,63.43
2018-05-27T10:06:25.376Z,62.07
2018-05-27T10:07:25.384Z,62.66
2018-05-27T10:08:25.389Z,64.01
2018-05-27T10:09:25.399Z,63.59
2018-05-27T10:10:25.407Z,62.75
2018-05-27T10:11:25.414Z,61.69
2018-05-27T10:12:25.424Z,62.56
2018-05-27T10:13:25.432Z,63.14
2018-05-27T10:14:25.440Z,63.72
2018-05-27T10:15:25.450Z,63.14
2018-05-27T10:16:25.458Z,64.89
2018-05-27T10:17:25.466Z,65.56
2018-05-27T10:18:25.475Z,61.79
2018-05-27T10:19:25.521Z,60.14
2018-05-27T10:20:25.490Z,61.49
2018-05-27T10:21:26.649Z,64.79
2018-05-27T10:22:25.507Z,65.95
2018-05-27T10:23:25.515Z,65.66
2018-05-27T10:24:25.527Z,64.98
2018-05-27T10:25:25.532Z,64.89
2018-05-27T10:26:25.540Z,65.08
2018-05-27T10:27:25.550Z,64.79
2018-05-27T10:28:25.557Z,65.30
2018-05-27T10:29:25.565Z,63.27
2018-05-27T10:30:25.572Z,62.30
2018-05-27T10:31:25.585Z,61.33
2018-05-27T10:32:25.590Z,61.43
2018-05-27T10:33:25.598Z,59.97
2018-05-27T10:34:25.605Z,60.62
2018-05-27T10:35:25.615Z,61.01
2018-05-27T10:36:25.622Z,60.52
2018-05-27T10:37:25.633Z,60.72
2018-05-27T10:38:25.638Z,62.07
2018-05-27T10:39:25.649Z,63.53
2018-05-27T10:40:25.657Z,62.49
2018-05-27T10:41:25.680Z,62.79
2018-05-27T10:42:25.671Z,62.10
2018-05-27T10:43:25.681Z,61.33
2018-05-27T10:44:25.695Z,61.94
2018-05-27T10:45:25.698Z,61.17
2018-05-27T10:46:25.708Z,60.49
2018-05-27T10:47:25.722Z,58.91
2018-05-27T10:48:25.723Z,59.10
2018-05-27T10:49:25.733Z,60.82
2018-05-27T10:50:25.741Z,60.62
2018-05-27T10:51:25.749Z,60.24
2018-05-27T10:52:25.759Z,60.82
2018-05-27T10:53:25.766Z,60.50
2018-05-27T10:54:25.777Z,62.43
2018-05-27T10:55:25.784Z,63.59
2018-05-27T10:56:25.791Z,63.24
2018-05-27T10:57:25.799Z,63.62
2018-05-27T10:58:25.808Z,63.53
2018-05-27T10:59:25.816Z,64.50
2018-05-27T11:00:25.823Z,61.98
2018-05-27T11:01:25.831Z,60.88
2018-05-27T11:02:25.840Z,60.21
2018-05-27T11:03:25.850Z,60.57
2018-05-27T11:04:25.855Z,62.98
2018-05-27T11:05:25.864Z,64.04
2018-05-27T11:06:25.869Z,66.11
2018-05-27T11:07:25.878Z,65.63
2018-05-27T11:08:25.886Z,66.11
2018-05-27T11:09:25.895Z,60.98
2018-05-27T11:10:25.900Z,61.56
2018-05-27T11:11:25.908Z,61.36
2018-05-27T11:12:25.914Z,60.57
2018-05-27T11:13:25.933Z,60.75
2018-05-27T11:14:25.931Z,61.53
2018-05-27T11:15:25.938Z,64.04
2018-05-27T11:16:25.945Z,65.50
2018-05-27T11:17:25.952Z,66.75
2018-05-27T11:18:25.960Z,65.40
2018-05-27T11:19:25.966Z,62.69
2018-05-27T11:20:25.976Z,61.33
2018-05-27T11:21:25.980Z,60.27
2018-05-27T11:22:25.989Z,60.66
2018-05-27T11:23:25.999Z,60.66
2018-05-27T11:24:26.002Z,60.47
2018-05-27T11:25:26.010Z,61.15
2018-05-27T11:26:26.016Z,61.11
2018-05-27T11:27:26.024Z,60.08
2018-05-27T11:28:26.029Z,60.75
2018-05-27T11:29:26.044Z,65.11
2018-05-27T11:30:26.047Z,66.95
2018-05-27T11:31:26.052Z,63.95
2018-05-27T11:32:26.060Z,63.95
2018-05-27T11:33:26.066Z,63.31
2018-05-27T11:34:26.076Z,63.18
2018-05-27T11:35:26.079Z,64.47
2018-05-27T11:36:26.085Z,63.21
2018-05-27T11:37:26.093Z,63.21
2018-05-27T11:38:26.100Z,63.79
2018-05-27T11:39:26.106Z,63.49
2018-05-27T11:40:26.114Z,61.46
2018-05-27T11:41:26.122Z,61.85
2018-05-27T11:42:26.159Z,60.04
2018-05-27T11:43:26.135Z,57.53
2018-05-27T11:44:26.144Z,58.20
2018-05-27T11:45:26.151Z,57.43
2018-05-27T11:46:26.158Z,58.42
2018-05-27T11:47:26.167Z,57.39
2018-05-27T11:48:26.173Z,57.09
2018-05-27T11:49:26.181Z,58.58
2018-05-27T11:50:26.312Z,59.09
2018-05-27T11:51:26.198Z,60.84
2018-05-27T11:52:26.206Z,59.31
2018-05-27T11:53:26.216Z,58.28
2018-05-27T11:54:26.224Z,56.26
2018-05-27T11:55:26.233Z,55.98
2018-05-27T11:56:26.243Z,53.06
2018-05-27T11:57:26.252Z,52.09
2018-05-27T11:58:26.261Z,53.54
2018-05-27T11:59:26.272Z,55.39
2018-05-27T12:00:26.282Z,57.04
2018-05-27T12:01:26.293Z,54.54
2018-05-27T12:03:26.314Z,57.78
2018-05-27T12:04:26.648Z,57.22
2018-05-27T12:05:26.634Z,56.35
2018-05-27T12:06:26.345Z,53.91
2018-05-27T12:07:26.356Z,50.60
2018-05-27T12:08:26.367Z,53.94
2018-05-27T12:09:26.467Z,54.13
2018-05-27T12:10:26.390Z,52.67
2018-05-27T12:11:26.400Z,48.85
2018-05-27T12:12:26.412Z,48.34
2018-05-27T12:13:26.423Z,50.60
2018-05-27T12:14:26.460Z,52.75
2018-05-27T12:15:26.445Z,47.96
2018-05-27T12:16:26.457Z,49.12
2018-05-27T12:17:26.469Z,49.22
2018-05-27T12:18:26.479Z,48.51
2018-05-27T12:19:26.492Z,48.41
2018-05-27T12:20:26.502Z,48.58
2018-05-27T12:21:26.515Z,49.27
2018-05-27T12:22:26.526Z,50.04
2018-05-27T12:23:26.536Z,52.67
2018-05-27T12:24:26.547Z,54.38
2018-05-27T12:25:26.559Z,54.18
2018-05-27T12:26:26.569Z,48.83
2018-05-27T12:27:26.579Z,48.10
2018-05-27T12:28:26.591Z,49.66
2018-05-27T12:29:26.605Z,53.54
2018-05-27T12:30:26.612Z,53.64
2018-05-27T12:31:26.624Z,52.96
2018-05-27T12:32:26.634Z,51.79
2018-05-27T12:33:26.647Z,52.06
2018-05-27T12:34:26.654Z,50.21
2018-05-27T12:35:26.665Z,50.48
2018-05-27T12:36:26.675Z,53.27
2018-05-27T12:37:26.686Z,53.56
2018-05-27T12:38:26.694Z,52.98
2018-05-27T12:39:26.704Z,51.23
2018-05-27T12:40:26.715Z,52.40
2018-05-27T12:41:26.724Z,50.34
2018-05-27T12:42:26.733Z,50.21
2018-05-27T12:43:26.741Z,50.12
2018-05-27T12:44:26.817Z,51.86
2018-05-27T12:45:26.758Z,51.86
2018-05-27T12:46:26.766Z,50.57
2018-05-27T12:47:26.775Z,51.45
2018-05-27T12:48:26.784Z,51.74
2018-05-27T12:49:26.793Z,54.94
2018-05-27T12:50:26.801Z,56.10
2018-05-27T12:51:26.808Z,55.71
2018-05-27T12:52:26.816Z,56.49
2018-05-27T12:53:26.829Z,58.72
2018-05-27T12:54:26.832Z,58.42